TimeEDT,TemperatureF,Dew PointF,Humidity,Sea Level PressureIn,VisibilityMPH,Wind Direction,Wind SpeedMPH,Gust SpeedMPH,PrecipitationIn,Events,Conditions,WindDirDegrees,DateUTC
12:15 AM,78.8,71.6,78,29.94,7.0,Calm,Calm,-,N/A,,Scattered Clouds,0,2013-08-28 04:15:00
12:35 AM,78.8,71.6,78,29.94,7.0,Calm,Calm,-,N/A,,Mostly Cloudy,0,2013-08-28 04:35:00
12:55 AM,78.8,71.6,78,29.94,7.0,Calm,Calm,-,N/A,,Overcast,0,2013-08-28 04:55:00
1:15 AM,77.0,71.6,83,29.94,7.0,Calm,Calm,-,N/A,,Scattered Clouds,0,2013-08-28 05:15:00
1:35 AM,77.0,73.4,89,29.94,5.0,Calm,Calm,-,N/A,,Clear,0,2013-08-28 05:35:00
1:55 AM,77.0,71.6,83,29.93,7.0,Calm,Calm,-,N/A,,Clear,0,2013-08-28 05:55:00
2:15 AM,75.2,71.6,89,29.93,5.0,Calm,Calm,-,N/A,,Clear,0,2013-08-28 06:15:00
2:35 AM,75.2,71.6,89,29.92,5.0,Calm,Calm,-,N/A,,Clear,0,2013-08-28 06:35:00
2:55 AM,75.2,71.6,89,29.92,5.0,Calm,Calm,-,N/A,,Clear,0,2013-08-28 06:55:00
3:15 AM,75.2,71.6,89,29.92,7.0,Calm,Calm,-,N/A,,Clear,0,2013-08-28 07:15:00
3:35 AM,73.4,71.6,94,29.91,5.0,WSW,3.5,-,N/A,,Clear,240,2013-08-28 07:35:00
3:55 AM,75.2,71.6,89,29.90,7.0,Calm,Calm,-,N/A,,Scattered Clouds,0,2013-08-28 07:55:00
4:15 AM,75.2,69.8,83,29.91,7.0,Calm,Calm,-,N/A,,Scattered Clouds,0,2013-08-28 08:15:00
4:35 AM,73.4,69.8,88,29.91,7.0,Calm,Calm,-,N/A,,Clear,0,2013-08-28 08:35:00
4:55 AM,73.4,69.8,88,29.91,7.0,Calm,Calm,-,N/A,,Clear,0,2013-08-28 08:55:00
5:15 AM,71.6,69.8,94,29.91,5.0,Calm,Calm,-,N/A,,Clear,0,2013-08-28 09:15:00
5:35 AM,75.2,69.8,83,29.91,7.0,Calm,Calm,-,N/A,,Clear,0,2013-08-28 09:35:00
5:55 AM,71.6,69.8,94,29.91,4.0,Calm,Calm,-,N/A,,Clear,0,2013-08-28 09:55:00
6:15 AM,71.6,69.8,94,29.91,4.0,Calm,Calm,-,N/A,,Clear,0,2013-08-28 10:15:00
6:35 AM,71.6,69.8,94,29.92,4.0,Calm,Calm,-,N/A,,Clear,0,2013-08-28 10:35:00
6:55 AM,71.6,69.8,94,29.92,2.5,Calm,Calm,-,N/A,,Clear,0,2013-08-28 10:55:00
7:15 AM,71.6,69.8,94,29.93,3.0,Calm,Calm,-,N/A,,Clear,0,2013-08-28 11:15:00
7:35 AM,71.6,69.8,94,29.93,4.0,Calm,Calm,-,N/A,,Clear,0,2013-08-28 11:35:00
7:55 AM,73.4,71.6,94,29.93,4.0,Calm,Calm,-,N/A,,Clear,0,2013-08-28 11:55:00
8:15 AM,73.4,71.6,94,29.93,3.0,Calm,Calm,-,N/A,,Clear,0,2013-08-28 12:15:00
8:35 AM,73.4,71.6,94,29.93,4.0,Calm,Calm,-,N/A,,Clear,0,2013-08-28 12:35:00
8:55 AM,75.2,71.6,89,29.94,5.0,Calm,Calm,-,N/A,,Clear,0,2013-08-28 12:55:00
9:15 AM,75.2,71.6,89,29.95,5.0,Calm,Calm,-,N/A,,Scattered Clouds,0,2013-08-28 13:15:00
9:35 AM,75.2,71.6,89,29.96,5.0,Calm,Calm,-,N/A,,Mostly Cloudy,0,2013-08-28 13:35:00
9:55 AM,77.0,71.6,83,29.97,5.0,Calm,Calm,-,N/A,Rain,Light Rain,0,2013-08-28 13:55:00
10:15 AM,77.0,71.6,83,29.98,5.0,NNW,3.5,-,N/A,Rain,Rain,330,2013-08-28 14:15:00
10:35 AM,75.2,71.6,89,29.98,4.0,Calm,Calm,-,N/A,Rain,Rain,0,2013-08-28 14:35:00
10:55 AM,75.2,73.4,94,29.98,5.0,Calm,Calm,-,N/A,Rain,Light Rain,0,2013-08-28 14:55:00
11:15 AM,75.2,73.4,94,29.98,7.0,Calm,Calm,-,N/A,Rain,Light Rain,0,2013-08-28 15:15:00
11:35 AM,77.0,71.6,83,29.97,10.0,Calm,Calm,-,N/A,,Light Drizzle,0,2013-08-28 15:35:00
11:55 AM,77.0,71.6,83,29.96,7.0,Calm,Calm,-,N/A,Rain,Light Rain,0,2013-08-28 15:55:00
12:15 PM,77.0,73.4,89,29.95,7.0,Calm,Calm,-,N/A,Rain,Light Rain,0,2013-08-28 16:15:00
12:35 PM,77.0,73.4,89,29.93,7.0,Calm,Calm,-,N/A,Rain,Light Rain,0,2013-08-28 16:35:00
12:55 PM,77.0,73.4,89,29.93,10.0,SW,3.5,-,N/A,,Clear,230,2013-08-28 16:55:00
1:15 PM,78.8,73.4,83,29.92,10.0,SW,4.6,-,N/A,,Scattered Clouds,220,2013-08-28 17:15:00
1:35 PM,78.8,73.4,83,29.92,10.0,SSW,4.6,-,N/A,Rain,Light Rain,210,2013-08-28 17:35:00
1:55 PM,78.8,73.4,83,29.92,10.0,WSW,3.5,-,N/A,Rain,Light Rain,250,2013-08-28 17:55:00
2:15 PM,78.8,73.4,83,29.92,10.0,Calm,Calm,-,N/A,Rain,Light Rain,0,2013-08-28 18:15:00
2:35 PM,78.8,73.4,83,29.91,10.0,South,3.5,-,N/A,,Mostly Cloudy,190,2013-08-28 18:35:00
2:55 PM,77.0,73.4,89,29.90,10.0,SSW,3.5,-,N/A,,Overcast,200,2013-08-28 18:55:00
3:15 PM,77.0,73.4,89,29.89,10.0,SSW,4.6,-,N/A,,Mostly Cloudy,200,2013-08-28 19:15:00
3:35 PM,77.0,73.4,89,29.89,7.0,South,4.6,-,N/A,,Mostly Cloudy,190,2013-08-28 19:35:00
3:55 PM,77.0,73.4,89,29.89,7.0,South,4.6,-,N/A,Rain,Light Rain,190,2013-08-28 19:55:00
4:15 PM,77.0,73.4,89,29.89,5.0,SSW,3.5,-,N/A,,Overcast,210,2013-08-28 20:15:00
4:35 PM,77.0,75.2,94,29.87,5.0,SSW,4.6,-,N/A,,Mostly Cloudy,200,2013-08-28 20:35:00
4:55 PM,78.8,75.2,89,29.87,5.0,SSW,6.9,-,N/A,,Scattered Clouds,200,2013-08-28 20:55:00
5:15 PM,77.0,75.2,94,29.87,3.0,SSW,6.9,-,N/A,Rain,Rain,210,2013-08-28 21:15:00
5:35 PM,78.8,75.2,89,29.86,3.0,South,4.6,-,N/A,Rain,Light Rain,190,2013-08-28 21:35:00
5:55 PM,78.8,75.2,89,29.86,4.0,South,4.6,-,N/A,Rain,Light Rain,180,2013-08-28 21:55:00
6:15 PM,78.8,75.2,89,29.85,3.0,South,4.6,-,N/A,,Mostly Cloudy,180,2013-08-28 22:15:00
6:35 PM,78.8,75.2,89,29.86,3.0,South,4.6,-,N/A,Rain,Light Rain,170,2013-08-28 22:35:00
6:55 PM,78.8,75.2,89,29.85,3.0,SSE,4.6,-,N/A,Rain,Light Rain,160,2013-08-28 22:55:00
7:15 PM,77.0,75.2,94,29.84,1.8,South,5.8,-,N/A,,Mostly Cloudy,190,2013-08-28 23:15:00
7:35 PM,77.0,75.2,94,29.84,1.8,SSW,5.8,-,N/A,,Mostly Cloudy,200,2013-08-28 23:35:00
7:55 PM,77.0,75.2,94,29.83,3.0,South,5.8,-,N/A,,Scattered Clouds,190,2013-08-28 23:55:00
8:15 PM,77.0,75.2,94,29.84,4.0,South,5.8,-,N/A,,Scattered Clouds,190,2013-08-29 00:15:00
8:35 PM,77.0,75.2,94,29.84,4.0,SW,5.8,-,N/A,,Mostly Cloudy,220,2013-08-29 00:35:00
8:55 PM,77.0,75.2,94,29.84,4.0,SW,4.6,-,N/A,,Scattered Clouds,220,2013-08-29 00:55:00
9:15 PM,78.8,75.2,89,29.83,4.0,SSW,6.9,-,N/A,,Scattered Clouds,210,2013-08-29 01:15:00
9:35 PM,78.8,75.2,89,29.83,4.0,SW,4.6,-,N/A,,Clear,220,2013-08-29 01:35:00
9:55 PM,77.0,75.2,94,29.84,4.0,WSW,3.5,-,N/A,,Scattered Clouds,250,2013-08-29 01:55:00
10:15 PM,78.8,75.2,89,29.84,4.0,SW,3.5,-,N/A,,Mostly Cloudy,230,2013-08-29 02:15:00
10:35 PM,77.0,75.2,94,29.83,3.0,WSW,4.6,-,N/A,,Scattered Clouds,240,2013-08-29 02:35:00
10:55 PM,77.0,75.2,94,29.83,3.0,Calm,Calm,-,N/A,,Clear,0,2013-08-29 02:55:00
11:15 PM,75.2,75.2,100,29.83,2.5,Calm,Calm,-,N/A,,Scattered Clouds,0,2013-08-29 03:15:00
11:35 PM,75.2,75.2,100,29.83,2.5,WSW,3.5,-,N/A,,Scattered Clouds,240,2013-08-29 03:35:00
11:55 PM,75.2,75.2,100,29.82,2.5,SW,3.5,-,N/A,,Clear,220,2013-08-29 03:55:00